createdAt,value
2023-07-10T00:01:30.357Z,97.88
2023-07-10T00:03:57.721Z,97.34
2023-07-10T00:06:25.557Z,97.40
2023-07-10T00:08:52.511Z,98.30
2023-07-10T00:11:29.711Z,98.23
2023-07-10T00:13:57.638Z,97.71
2023-07-10T00:16:26.076Z,98.31
2023-07-10T00:18:53.419Z,97.92
2023-07-10T00:21:20.696Z,98.16
2023-07-10T00:23:48.120Z,98.58
2023-07-10T00:26:26.726Z,98.51
2023-07-10T00:28:56.503Z,98.59
2023-07-10T00:31:26.461Z,98.41
2023-07-10T00:33:54.301Z,98.88
2023-07-10T00:36:30.327Z,99.01
2023-07-10T00:39:01.436Z,99.11
2023-07-10T00:41:33.730Z,98.90
2023-07-10T00:44:04.631Z,99.07
2023-07-10T00:46:43.190Z,98.97
2023-07-10T00:49:19.591Z,98.33
2023-07-10T00:51:58.232Z,98.51
2023-07-10T00:54:36.696Z,98.42
2023-07-10T00:57:06.621Z,97.84
2023-07-10T00:59:40.386Z,97.82
2023-07-10T01:02:11.254Z,98.46
2023-07-10T01:04:42.276Z,98.43
2023-07-10T01:07:11.776Z,98.52
2023-07-10T01:09:40.729Z,98.26
2023-07-10T01:12:07.984Z,97.83
2023-07-10T01:14:36.515Z,97.93
2023-07-10T01:17:05.391Z,97.99
2023-07-10T01:19:33.606Z,97.97
2023-07-10T01:22:01.065Z,98.38
2023-07-10T01:24:28.197Z,98.30
2023-07-10T01:26:57.131Z,98.06
2023-07-10T01:29:38.073Z,97.64
2023-07-10T01:32:06.764Z,97.36
2023-07-10T01:34:42.636Z,96.98
2023-07-10T01:37:11.200Z,96.68
2023-07-10T01:39:47.064Z,96.60
2023-07-10T01:42:14.323Z,95.91
2023-07-10T01:44:43.936Z,96.08
2023-07-10T01:47:12.550Z,96.18
2023-07-10T01:49:55.599Z,96.02
2023-07-10T01:52:24.412Z,95.85
2023-07-10T01:54:53.477Z,95.38
2023-07-10T01:57:25.338Z,95.14
2023-07-10T01:59:53.333Z,94.74
2023-07-10T02:02:20.828Z,94.92
2023-07-10T02:04:47.735Z,94.92
2023-07-10T02:07:14.789Z,94.75
2023-07-10T02:09:42.399Z,94.79
2023-07-10T02:12:09.872Z,94.23
2023-07-10T02:14:37.046Z,93.78
2023-07-10T02:17:04.577Z,94.06
2023-07-10T02:19:31.744Z,93.75
2023-07-10T02:21:58.913Z,93.67
2023-07-10T02:24:25.858Z,93.30
2023-07-10T02:26:52.853Z,92.98
2023-07-10T02:29:20.085Z,93.88
2023-07-10T02:31:47.053Z,95.16
2023-07-10T02:34:14.155Z,95.07
2023-07-10T02:36:41.005Z,95.25
2023-07-10T02:39:07.988Z,94.96
2023-07-10T02:41:35.212Z,94.33
2023-07-10T02:44:02.122Z,94.05
2023-07-10T02:46:29.010Z,94.30
2023-07-10T02:48:56.179Z,95.25
2023-07-10T02:51:23.287Z,95.28
2023-07-10T02:53:53.908Z,94.41
2023-07-10T02:56:21.003Z,94.14
2023-07-10T02:58:52.236Z,94.34
2023-07-10T03:01:19.268Z,94.40
2023-07-10T03:03:48.188Z,94.21
2023-07-10T03:06:15.976Z,94.03
2023-07-10T03:08:42.971Z,93.96
2023-07-10T03:11:13.011Z,93.79
2023-07-10T03:13:39.902Z,94.12
2023-07-10T03:16:12.041Z,94.29
2023-07-10T03:18:39.989Z,93.93
2023-07-10T03:21:07.585Z,94.64
2023-07-10T03:23:34.923Z,94.53
2023-07-10T03:26:03.046Z,95.00
2023-07-10T03:28:30.233Z,94.54
2023-07-10T03:31:00.617Z,94.33
2023-07-10T03:33:27.744Z,94.48
2023-07-10T03:36:02.989Z,93.62
2023-07-10T03:38:30.898Z,93.34
2023-07-10T03:40:59.097Z,92.47
2023-07-10T03:43:27.706Z,92.56
2023-07-10T03:45:55.952Z,92.66
2023-07-10T03:48:22.894Z,92.53
2023-07-10T03:50:49.874Z,92.19
2023-07-10T03:53:16.809Z,91.93
2023-07-10T03:55:54.098Z,91.70
2023-07-10T03:58:32.839Z,92.38
2023-07-10T04:01:01.705Z,92.26
2023-07-10T04:03:31.768Z,91.64
2023-07-10T04:05:59.738Z,91.35
2023-07-10T04:08:31.702Z,91.20
2023-07-10T04:11:01.401Z,91.74
2023-07-10T04:13:28.733Z,91.29
2023-07-10T04:16:05.112Z,90.88
2023-07-10T04:18:40.186Z,90.28
2023-07-10T04:21:12.961Z,90.31
2023-07-10T04:23:40.404Z,89.90
2023-07-10T04:26:13.548Z,89.99
2023-07-10T04:28:41.877Z,89.83
2023-07-10T04:31:08.857Z,89.40
2023-07-10T04:33:35.899Z,88.73
2023-07-10T04:36:03.261Z,88.59
2023-07-10T04:38:30.529Z,89.02
2023-07-10T04:41:04.247Z,89.56
2023-07-10T04:43:32.721Z,89.16
2023-07-10T04:46:03.213Z,89.66
2023-07-10T04:48:31.223Z,89.70
2023-07-10T04:51:04.823Z,89.14
2023-07-10T04:53:33.502Z,88.73
2023-07-10T04:56:03.209Z,87.92
2023-07-10T04:58:30.678Z,87.08
2023-07-10T05:01:00.432Z,86.25
2023-07-10T05:03:27.797Z,85.00
2023-07-10T05:06:00.012Z,84.88
2023-07-10T05:08:28.709Z,84.29
2023-07-10T05:10:57.951Z,84.62
2023-07-10T05:13:28.906Z,82.86
2023-07-10T05:15:58.612Z,78.53
2023-07-10T05:18:30.785Z,75.21
2023-07-10T05:20:59.918Z,72.40
2023-07-10T05:23:28.356Z,69.84
2023-07-10T05:26:12.348Z,69.36
2023-07-10T05:28:40.862Z,70.56
2023-07-10T05:31:10.168Z,72.23
2023-07-10T05:33:39.315Z,72.18
2023-07-10T05:36:11.001Z,73.26
2023-07-10T05:38:37.970Z,73.37
2023-07-10T05:41:05.911Z,75.18
2023-07-10T05:43:34.815Z,76.40
2023-07-10T05:46:02.816Z,78.08
2023-07-10T05:48:30.247Z,79.69
2023-07-10T05:50:57.814Z,80.37
2023-07-10T05:53:25.606Z,80.87
2023-07-10T05:55:54.891Z,81.39
2023-07-10T05:58:24.201Z,82.71
2023-07-10T06:00:52.758Z,83.73
2023-07-10T06:03:20.555Z,83.54
2023-07-10T06:05:55.529Z,83.28
2023-07-10T06:08:23.286Z,83.66
2023-07-10T06:10:50.850Z,84.14
2023-07-10T06:13:18.510Z,84.40
2023-07-10T06:15:48.036Z,84.51
2023-07-10T06:18:18.847Z,85.84
2023-07-10T06:20:52.592Z,88.14
2023-07-10T06:23:20.819Z,89.08
2023-07-10T06:25:48.081Z,89.39
2023-07-10T06:28:15.220Z,90.90
2023-07-10T06:30:44.458Z,90.73
2023-07-10T06:33:13.344Z,91.58
2023-07-10T06:35:40.588Z,91.18
2023-07-10T06:38:07.612Z,90.42
2023-07-10T06:40:34.479Z,90.10
2023-07-10T06:43:01.501Z,90.80
2023-07-10T06:45:28.448Z,89.37
2023-07-10T06:47:55.607Z,90.16
2023-07-10T06:50:22.668Z,89.14
2023-07-10T06:52:49.736Z,87.74
2023-07-10T06:55:18.601Z,86.03
2023-07-10T06:57:46.389Z,84.44
2023-07-10T07:00:15.600Z,83.82
2023-07-10T07:02:44.189Z,83.71
2023-07-10T07:05:13.048Z,84.27
2023-07-10T07:07:41.233Z,83.06
2023-07-10T07:10:16.333Z,81.15
2023-07-10T07:12:44.347Z,76.28
2023-07-10T07:15:12.723Z,74.15
2023-07-10T07:17:42.686Z,72.05
2023-07-10T07:20:10.015Z,69.03
2023-07-10T07:22:37.280Z,66.36
2023-07-10T07:25:04.577Z,65.68
2023-07-10T07:27:33.607Z,66.59
2023-07-10T07:30:05.542Z,64.57
2023-07-10T07:32:32.889Z,62.71
2023-07-10T07:35:00.086Z,63.26
2023-07-10T07:37:27.083Z,66.41
2023-07-10T07:39:55.801Z,68.40
2023-07-10T07:42:22.638Z,68.90
2023-07-10T07:44:49.631Z,69.78
2023-07-10T07:47:17.610Z,72.02
2023-07-10T07:49:44.703Z,73.63
2023-07-10T07:52:12.077Z,74.58
2023-07-10T07:54:40.954Z,73.66
2023-07-10T07:57:09.381Z,72.41
2023-07-10T07:59:37.216Z,71.43
2023-07-10T08:02:04.278Z,74.66
2023-07-10T08:04:31.232Z,75.16
2023-07-10T08:06:58.826Z,75.99
2023-07-10T08:09:25.805Z,78.76
2023-07-10T08:11:52.941Z,78.89
2023-07-10T08:14:20.101Z,78.95
2023-07-10T08:16:46.965Z,77.02
2023-07-10T08:19:14.075Z,65.03
2023-07-10T08:21:41.027Z,63.76
2023-07-10T08:24:07.858Z,59.92
2023-07-10T08:26:34.895Z,57.64
2023-07-10T08:29:22.807Z,47.83
2023-07-10T08:31:49.667Z,44.62
2023-07-10T08:34:16.866Z,49.48
2023-07-10T08:36:44.384Z,49.61
2023-07-10T08:39:12.080Z,46.05
2023-07-10T08:41:39.373Z,44.79
2023-07-10T08:44:09.286Z,44.79
2023-07-10T08:46:36.377Z,47.06
2023-07-10T08:49:07.640Z,44.76
2023-07-10T08:52:03.623Z,37.85
2023-07-10T08:54:31.277Z,35.67
2023-07-10T08:57:22.793Z,39.29
2023-07-10T08:59:52.601Z,39.86
2023-07-10T09:02:38.333Z,37.50
2023-07-10T09:05:12.730Z,37.79
2023-07-10T09:07:43.969Z,34.43
2023-07-10T09:10:17.371Z,31.26
2023-07-10T09:12:51.001Z,31.40
2023-07-10T09:15:28.449Z,39.08
2023-07-10T09:18:16.865Z,42.75
2023-07-10T09:20:45.126Z,30.95
2023-07-10T09:23:26.603Z,26.34
2023-07-10T09:26:06.313Z,28.63
2023-07-10T09:28:33.753Z,30.91
2023-07-10T09:31:37.321Z,33.38
2023-07-10T09:34:04.411Z,25.74
2023-07-10T09:36:31.527Z,24.83
2023-07-10T09:38:58.581Z,27.62
2023-07-10T09:41:30.622Z,27.42
2023-07-10T09:44:03.827Z,28.93
2023-07-10T09:46:33.638Z,25.65
2023-07-10T09:49:03.862Z,23.45
2023-07-10T09:51:31.406Z,25.89
2023-07-10T09:54:08.103Z,28.00
2023-07-10T09:56:39.857Z,32.28
2023-07-10T09:59:33.235Z,37.72
2023-07-10T10:02:25.874Z,42.40
2023-07-10T10:05:15.715Z,35.17
2023-07-10T10:07:49.052Z,34.01
2023-07-10T10:10:28.472Z,34.35
2023-07-10T10:13:02.637Z,38.33
2023-07-10T10:16:07.899Z,41.36
2023-07-10T10:19:00.158Z,41.76
2023-07-10T10:21:30.967Z,35.10
2023-07-10T10:24:06.908Z,30.54
2023-07-10T10:26:52.761Z,34.72
2023-07-10T10:29:46.500Z,37.98
2023-07-10T10:32:45.750Z,39.19
2023-07-10T10:35:25.515Z,37.06
2023-07-10T10:38:14.434Z,28.58
2023-07-10T10:41:20.552Z,26.31
2023-07-10T10:44:46.462Z,24.52
2023-07-10T10:47:59.570Z,22.89
2023-07-10T10:50:45.120Z,24.79
2023-07-10T10:53:37.984Z,28.73
2023-07-10T10:56:28.309Z,24.35
2023-07-10T10:59:11.022Z,23.52
2023-07-10T11:01:53.228Z,20.78
2023-07-10T11:04:44.782Z,17.37
2023-07-10T11:07:14.500Z,15.72
2023-07-10T11:09:51.214Z,15.68
2023-07-10T11:12:23.266Z,15.72
2023-07-10T11:14:56.332Z,13.98
2023-07-10T11:17:23.869Z,16.37
2023-07-10T11:19:51.807Z,15.40
2023-07-10T11:22:29.549Z,15.66
2023-07-10T11:24:57.706Z,14.93
2023-07-10T11:27:43.122Z,15.95
2023-07-10T11:30:14.782Z,17.68
2023-07-10T11:33:16.240Z,20.47
2023-07-10T11:36:12.287Z,27.33
2023-07-10T11:38:57.000Z,20.22
2023-07-10T11:41:30.688Z,23.78
2023-07-10T11:44:16.090Z,27.16
2023-07-10T11:47:00.709Z,26.87
2023-07-10T11:49:36.588Z,25.59
2023-07-10T11:52:09.418Z,23.50
2023-07-10T11:54:40.628Z,23.99
2023-07-10T11:57:10.734Z,24.62
2023-07-10T11:59:45.718Z,26.22
2023-07-10T12:02:46.736Z,27.80
2023-07-10T12:05:39.395Z,29.46
2023-07-10T12:08:09.245Z,30.64
2023-07-10T12:10:46.969Z,32.34
2023-07-10T12:13:31.767Z,34.90
2023-07-10T12:16:11.917Z,34.56
2023-07-10T12:18:41.127Z,33.56
2023-07-10T12:21:21.217Z,35.63
2023-07-10T12:24:01.595Z,35.39
2023-07-10T12:29:00.273Z,37.18
2023-07-10T12:31:27.492Z,37.04
2023-07-10T12:33:56.792Z,38.41
2023-07-10T12:36:26.421Z,37.50
2023-07-10T12:38:55.874Z,37.72
2023-07-10T12:41:23.810Z,38.31
2023-07-10T12:43:57.627Z,40.92
2023-07-10T12:46:26.898Z,39.80
2023-07-10T12:48:58.550Z,39.16
2023-07-10T12:51:35.254Z,35.27
2023-07-10T12:54:03.653Z,38.01
2023-07-10T12:56:39.977Z,35.74
2023-07-10T12:59:18.605Z,36.52
2023-07-10T13:02:15.262Z,37.13
2023-07-10T13:04:47.768Z,38.54
2023-07-10T13:07:30.280Z,39.34
2023-07-10T13:10:01.664Z,36.66
2023-07-10T13:12:30.500Z,34.05
2023-07-10T13:14:59.812Z,35.68
2023-07-10T13:17:29.149Z,34.69
2023-07-10T13:20:08.652Z,36.18
2023-07-10T13:22:37.921Z,37.04
2023-07-10T13:25:07.131Z,35.00
2023-07-10T13:27:34.313Z,35.76
2023-07-10T13:30:01.286Z,32.83
2023-07-10T13:32:28.776Z,36.78
2023-07-10T13:34:56.008Z,35.32
2023-07-10T13:37:24.711Z,37.23
2023-07-10T13:39:54.414Z,35.85
2023-07-10T13:42:22.116Z,34.11
2023-07-10T13:44:49.751Z,33.08
2023-07-10T13:47:19.042Z,34.63
2023-07-10T13:49:46.446Z,33.60
2023-07-10T13:52:23.380Z,34.42
2023-07-10T13:54:51.579Z,36.63
2023-07-10T13:57:27.600Z,34.09
2023-07-10T13:59:59.639Z,35.31
2023-07-10T14:02:37.719Z,35.24
2023-07-10T14:05:08.298Z,35.67
2023-07-10T14:07:36.235Z,36.25
2023-07-10T14:10:06.023Z,35.49
2023-07-10T14:12:35.729Z,34.03
2023-07-10T14:15:04.102Z,34.25
2023-07-10T14:17:33.788Z,34.99
2023-07-10T14:20:02.465Z,33.98
2023-07-10T14:22:29.859Z,34.77
2023-07-10T14:24:56.809Z,34.71
2023-07-10T14:27:26.936Z,37.38
2023-07-10T14:29:55.591Z,35.73
2023-07-10T14:32:25.618Z,34.30
2023-07-10T14:34:52.486Z,37.28
2023-07-10T14:37:22.608Z,34.82
2023-07-10T14:39:50.897Z,35.10
2023-07-10T14:42:26.377Z,34.55
2023-07-10T14:44:53.333Z,32.89
2023-07-10T14:47:20.514Z,33.96
2023-07-10T14:49:47.876Z,34.04
2023-07-10T14:52:29.759Z,36.80
2023-07-10T14:54:59.158Z,34.67
2023-07-10T14:57:34.709Z,35.51
2023-07-10T15:00:05.378Z,34.96
2023-07-10T15:02:34.276Z,33.69
2023-07-10T15:05:01.525Z,33.35
2023-07-10T15:07:29.660Z,35.43
2023-07-10T15:09:58.381Z,34.30
2023-07-10T15:12:25.468Z,35.57
2023-07-10T15:14:52.804Z,34.60
2023-07-10T15:17:30.560Z,34.65
2023-07-10T15:19:57.667Z,35.31
2023-07-10T15:22:24.762Z,34.06
2023-07-10T15:24:51.652Z,35.78
2023-07-10T15:27:18.433Z,35.92
2023-07-10T15:29:45.443Z,37.88
2023-07-10T15:32:21.699Z,37.10
2023-07-10T15:34:52.289Z,38.17
2023-07-10T15:37:22.648Z,36.96
2023-07-10T15:39:50.270Z,34.91
2023-07-10T15:42:19.400Z,37.97
2023-07-10T15:44:47.775Z,37.25
2023-07-10T15:47:19.016Z,37.59
2023-07-10T15:49:46.005Z,37.31
2023-07-10T15:52:23.178Z,37.92
2023-07-10T15:54:51.141Z,38.43
2023-07-10T15:57:18.718Z,38.94
2023-07-10T15:59:45.746Z,37.52
2023-07-10T16:02:28.685Z,39.56
2023-07-10T16:04:56.357Z,39.96
2023-07-10T16:07:23.697Z,39.73
2023-07-10T16:09:50.846Z,38.23
2023-07-10T16:12:18.289Z,38.71
2023-07-10T16:14:45.797Z,38.43
2023-07-10T16:17:15.045Z,38.08
2023-07-10T16:19:42.704Z,39.66
2023-07-10T16:22:19.294Z,37.01
2023-07-10T16:24:48.465Z,40.25
2023-07-10T16:27:15.662Z,39.77
2023-07-10T16:29:43.210Z,41.22
2023-07-10T16:32:17.615Z,38.96
2023-07-10T16:34:44.952Z,39.79
2023-07-10T16:37:15.220Z,36.67
2023-07-10T16:39:42.874Z,38.78
2023-07-10T16:42:15.167Z,38.53
2023-07-10T16:44:45.487Z,37.91
2023-07-10T16:47:19.505Z,38.13
2023-07-10T16:49:47.902Z,37.92
2023-07-10T16:52:15.691Z,38.23
2023-07-10T16:54:42.576Z,38.10
2023-07-10T16:57:18.368Z,37.91
2023-07-10T16:59:46.200Z,38.46
2023-07-10T17:02:23.845Z,40.44
2023-07-10T17:04:52.412Z,40.13
2023-07-10T17:07:21.841Z,42.06
2023-07-10T17:09:48.882Z,41.71
2023-07-10T17:12:20.555Z,41.83
2023-07-10T17:14:48.131Z,41.44
2023-07-10T17:17:25.131Z,43.14
2023-07-10T17:19:52.965Z,41.97
2023-07-10T17:22:28.808Z,43.53
2023-07-10T17:24:57.373Z,43.19
2023-07-10T17:27:29.342Z,42.70
2023-07-10T17:29:56.928Z,44.29
2023-07-10T17:32:26.584Z,44.15
2023-07-10T17:34:55.261Z,44.50
2023-07-10T17:37:25.011Z,44.67
2023-07-10T17:39:52.163Z,43.99
2023-07-10T17:42:26.098Z,44.28
2023-07-10T17:44:53.005Z,45.01
2023-07-10T17:47:20.719Z,45.93
2023-07-10T17:49:47.812Z,45.95
2023-07-10T17:52:17.622Z,46.64
2023-07-10T17:54:45.648Z,47.22
2023-07-10T17:57:17.888Z,48.68
2023-07-10T17:59:47.101Z,47.66
2023-07-10T18:02:28.706Z,48.52
2023-07-10T18:04:55.706Z,48.70
2023-07-10T18:07:23.954Z,50.41
2023-07-10T18:09:51.156Z,49.95
2023-07-10T18:12:20.581Z,50.68
2023-07-10T18:14:48.711Z,51.21
2023-07-10T18:17:20.869Z,51.92
2023-07-10T18:19:48.893Z,51.49
2023-07-10T18:22:17.479Z,52.51
2023-07-10T18:24:45.350Z,53.39
2023-07-10T18:27:17.760Z,53.43
2023-07-10T18:29:45.950Z,54.56
2023-07-10T18:32:18.465Z,55.60
2023-07-10T18:34:47.851Z,55.94
2023-07-10T18:37:17.747Z,57.00
2023-07-10T18:39:45.528Z,58.66
2023-07-10T18:42:30.297Z,58.45
2023-07-10T18:44:58.040Z,59.30
2023-07-10T18:47:25.067Z,59.34
2023-07-10T18:49:52.477Z,60.76
2023-07-10T18:52:27.301Z,61.14
2023-07-10T18:54:54.736Z,62.10
2023-07-10T18:57:21.873Z,62.50
2023-07-10T18:59:48.894Z,62.29
2023-07-10T19:02:15.796Z,62.97
2023-07-10T19:04:42.800Z,63.85
2023-07-10T19:07:14.690Z,63.98
2023-07-10T19:09:44.744Z,64.39
2023-07-10T19:12:16.789Z,65.03
2023-07-10T19:14:45.003Z,65.22
2023-07-10T19:17:20.820Z,65.10
2023-07-10T19:19:52.151Z,66.41
2023-07-10T19:22:20.273Z,66.50
2023-07-10T19:24:47.805Z,65.87
2023-07-10T19:27:15.185Z,66.32
2023-07-10T19:29:42.185Z,66.07
2023-07-10T19:32:19.326Z,66.90
2023-07-10T19:34:46.612Z,66.78
2023-07-10T19:37:14.097Z,68.15
2023-07-10T19:39:41.745Z,67.62
2023-07-10T19:42:09.198Z,68.42
2023-07-10T19:44:58.853Z,68.95
2023-07-10T19:47:28.211Z,70.83
2023-07-10T19:49:55.936Z,71.63
2023-07-10T19:52:23.156Z,73.24
2023-07-10T19:54:52.942Z,73.96
2023-07-10T19:57:32.672Z,74.66
2023-07-10T20:00:01.039Z,75.83
2023-07-10T20:02:28.070Z,75.46
2023-07-10T20:04:57.010Z,74.92
2023-07-10T20:07:25.754Z,76.70
2023-07-10T20:09:53.862Z,77.44
2023-07-10T20:12:25.406Z,78.84
2023-07-10T20:14:53.062Z,80.12
2023-07-10T20:17:31.586Z,80.24
2023-07-10T20:19:59.772Z,80.40
2023-07-10T20:22:27.811Z,80.63
2023-07-10T20:24:55.659Z,79.86
2023-07-10T20:27:22.574Z,79.41
2023-07-10T20:29:49.885Z,81.00
2023-07-10T20:32:16.875Z,81.02
2023-07-10T20:34:48.706Z,81.15
2023-07-10T20:37:18.817Z,81.38
2023-07-10T20:39:45.772Z,81.13
2023-07-10T20:42:18.397Z,80.85
2023-07-10T20:44:47.806Z,81.01
2023-07-10T20:50:14.069Z,80.93
2023-07-10T20:52:44.979Z,80.50
2023-07-10T20:55:15.804Z,80.95
2023-07-10T20:57:42.869Z,81.50
2023-07-10T21:00:17.523Z,81.40
2023-07-10T21:02:44.779Z,81.66
2023-07-10T21:05:11.759Z,81.61
2023-07-10T21:07:38.998Z,81.77
2023-07-10T21:10:07.621Z,82.27
2023-07-10T21:12:35.008Z,83.39
2023-07-10T21:15:02.048Z,83.80
2023-07-10T21:17:33.312Z,83.95
2023-07-10T21:20:01.959Z,84.21
2023-07-10T21:22:29.380Z,84.18
2023-07-10T21:24:56.428Z,84.48
2023-07-10T21:27:26.586Z,84.80
2023-07-10T21:29:55.628Z,85.26
2023-07-10T21:32:25.334Z,85.09
2023-07-10T21:34:53.977Z,85.04
2023-07-10T21:37:21.312Z,85.21
2023-07-10T21:39:48.475Z,85.11
2023-07-10T21:42:21.930Z,85.35
2023-07-10T21:44:49.000Z,85.50
2023-07-10T21:47:16.304Z,85.80
2023-07-10T21:49:43.449Z,85.37
2023-07-10T21:52:10.897Z,85.22
2023-07-10T21:54:37.818Z,85.25
2023-07-10T21:57:05.456Z,85.78
2023-07-10T21:59:37.598Z,85.30
2023-07-10T22:02:04.650Z,85.57
2023-07-10T22:04:33.488Z,85.75
2023-07-10T22:07:00.386Z,86.18
2023-07-10T22:09:27.403Z,86.37
2023-07-10T22:11:54.509Z,85.86
2023-07-10T22:14:21.623Z,86.49
2023-07-10T22:16:51.703Z,87.11
2023-07-10T22:19:26.609Z,87.01
2023-07-10T22:21:53.404Z,86.88
2023-07-10T22:24:20.456Z,87.32
2023-07-10T22:26:48.146Z,86.85
2023-07-10T22:29:15.462Z,87.10
2023-07-10T22:31:45.365Z,87.21
2023-07-10T22:34:13.321Z,87.53
2023-07-10T22:36:41.383Z,87.53
2023-07-10T22:39:08.312Z,87.99
2023-07-10T22:41:36.424Z,87.57
2023-07-10T22:44:07.669Z,87.79
2023-07-10T22:46:39.570Z,88.04
2023-07-10T22:49:08.739Z,87.75
2023-07-10T22:51:36.750Z,87.75
2023-07-10T22:54:07.915Z,87.33
2023-07-10T22:56:42.590Z,87.58
2023-07-10T22:59:19.682Z,87.85
2023-07-10T23:01:49.091Z,87.94
2023-07-10T23:04:18.315Z,87.93
2023-07-10T23:06:45.600Z,87.72
2023-07-10T23:09:13.092Z,88.20
2023-07-10T23:11:40.248Z,88.02
2023-07-10T23:14:08.828Z,87.83
2023-07-10T23:16:36.112Z,88.69
2023-07-10T23:19:03.467Z,88.84
2023-07-10T23:21:30.682Z,88.86
2023-07-10T23:23:58.064Z,88.81
2023-07-10T23:26:26.765Z,89.01
2023-07-10T23:28:54.418Z,89.08
2023-07-10T23:31:27.337Z,89.09
2023-07-10T23:33:54.949Z,88.73
2023-07-10T23:36:27.790Z,88.30
2023-07-10T23:38:56.457Z,89.27
2023-07-10T23:41:23.403Z,90.14
2023-07-10T23:43:50.676Z,89.76
2023-07-10T23:46:17.818Z,88.85
2023-07-10T23:48:44.717Z,89.04
2023-07-10T23:51:12.124Z,88.89
2023-07-10T23:53:39.284Z,89.11
2023-07-10T23:56:07.957Z,88.72
2023-07-10T23:58:35.663Z,88.65
